sensor_id;sensor_type;location;lat;lon;timestamp;temperature;humidity
43862;DHT22;29510;52.140;5.034;2023-07-20T00:04:42;16.90;1.00
43862;DHT22;29510;52.140;5.034;2023-07-20T00:14:43;16.80;1.00
43862;DHT22;29510;52.140;5.034;2023-07-20T00:24:44;16.70;1.00
43862;DHT22;29510;52.140;5.034;2023-07-20T00:34:45;16.60;1.00
43862;DHT22;29510;52.140;5.034;2023-07-20T00:44:46;16.50;1.00
43862;DHT22;29510;52.140;5.034;2023-07-20T00:54:47;16.30;1.00
43862;DHT22;29510;52.140;5.034;2023-07-20T01:04:48;16.10;1.00
43862;DHT22;29510;52.140;5.034;2023-07-20T01:14:50;16.00;1.00
43862;DHT22;29510;52.140;5.034;2023-07-20T01:25:07;15.90;5.20
43862;DHT22;29510;52.140;5.034;2023-07-20T01:35:12;15.80;7.30
43862;DHT22;29510;52.140;5.034;2023-07-20T01:45:15;15.80;2.60
43862;DHT22;29510;52.140;5.034;2023-07-20T01:55:16;15.60;7.00
43862;DHT22;29510;52.140;5.034;2023-07-20T02:05:17;15.50;10.10
43862;DHT22;29510;52.140;5.034;2023-07-20T02:15:18;15.40;8.40
43862;DHT22;29510;52.140;5.034;2023-07-20T02:25:20;15.20;12.20
43862;DHT22;29510;52.140;5.034;2023-07-20T02:35:21;15.10;22.70
43862;DHT22;29510;52.140;5.034;2023-07-20T02:45:22;15.10;30.20
43862;DHT22;29510;52.140;5.034;2023-07-20T02:55:23;15.10;27.20
43862;DHT22;29510;52.140;5.034;2023-07-20T03:05:24;15.00;34.00
43862;DHT22;29510;52.140;5.034;2023-07-20T03:15:28;14.90;48.20
43862;DHT22;29510;52.140;5.034;2023-07-20T03:25:30;14.90;50.90
43862;DHT22;29510;52.140;5.034;2023-07-20T03:35:31;14.80;43.30
43862;DHT22;29510;52.140;5.034;2023-07-20T03:45:32;14.70;47.90
43862;DHT22;29510;52.140;5.034;2023-07-20T03:55:33;14.70;46.30
43862;DHT22;29510;52.140;5.034;2023-07-20T04:05:34;14.60;36.60
43862;DHT22;29510;52.140;5.034;2023-07-20T04:15:35;14.60;39.00
43862;DHT22;29510;52.140;5.034;2023-07-20T04:25:36;14.60;55.00
43862;DHT22;29510;52.140;5.034;2023-07-20T04:35:53;14.70;64.70
43862;DHT22;29510;52.140;5.034;2023-07-20T04:45:54;14.70;82.10
43862;DHT22;29510;52.140;5.034;2023-07-20T04:55:56;14.70;95.20
43862;DHT22;29510;52.140;5.034;2023-07-20T05:05:57;14.80;99.90
43862;DHT22;29510;52.140;5.034;2023-07-20T05:15:58;15.00;99.90
43862;DHT22;29510;52.140;5.034;2023-07-20T05:25:59;15.30;99.90
43862;DHT22;29510;52.140;5.034;2023-07-20T05:36:00;15.50;95.80
43862;DHT22;29510;52.140;5.034;2023-07-20T05:46:02;15.70;69.10
43862;DHT22;29510;52.140;5.034;2023-07-20T05:56:03;15.90;42.90
43862;DHT22;29510;52.140;5.034;2023-07-20T06:06:04;16.20;15.10
43862;DHT22;29510;52.140;5.034;2023-07-20T06:16:06;16.50;1.00
43862;DHT22;29510;52.140;5.034;2023-07-20T06:26:07;16.90;1.00
43862;DHT22;29510;52.140;5.034;2023-07-20T06:36:08;17.30;1.00
43862;DHT22;29510;52.140;5.034;2023-07-20T06:46:09;17.50;1.00
43862;DHT22;29510;52.140;5.034;2023-07-20T06:56:10;17.50;1.00
43862;DHT22;29510;52.140;5.034;2023-07-20T07:06:12;17.40;1.00
43862;DHT22;29510;52.140;5.034;2023-07-20T07:16:13;17.40;1.00
43862;DHT22;29510;52.140;5.034;2023-07-20T07:26:19;17.60;1.00
43862;DHT22;29510;52.140;5.034;2023-07-20T07:36:20;17.60;1.00
43862;DHT22;29510;52.140;5.034;2023-07-20T07:46:21;17.60;1.00
43862;DHT22;29510;52.140;5.034;2023-07-20T07:56:22;17.60;1.00
43862;DHT22;29510;52.140;5.034;2023-07-20T08:06:23;17.90;1.00
43862;DHT22;29510;52.140;5.034;2023-07-20T08:16:28;18.10;1.00
43862;DHT22;29510;52.140;5.034;2023-07-20T08:26:29;18.30;1.00
43862;DHT22;29510;52.140;5.034;2023-07-20T08:36:30;18.50;1.00
43862;DHT22;29510;52.140;5.034;2023-07-20T08:46:33;18.40;1.00
43862;DHT22;29510;52.140;5.034;2023-07-20T08:56:35;18.50;1.00
43862;DHT22;29510;52.140;5.034;2023-07-20T09:06:37;18.60;1.00
43862;DHT22;29510;52.140;5.034;2023-07-20T09:16:47;18.90;1.00
43862;DHT22;29510;52.140;5.034;2023-07-20T09:26:49;19.30;1.00
43862;DHT22;29510;52.140;5.034;2023-07-20T09:36:51;19.60;1.00
43862;DHT22;29510;52.140;5.034;2023-07-20T09:46:53;19.90;1.00
43862;DHT22;29510;52.140;5.034;2023-07-20T09:56:55;20.10;1.00
43862;DHT22;29510;52.140;5.034;2023-07-20T10:06:59;19.70;1.00
43862;DHT22;29510;52.140;5.034;2023-07-20T10:17:03;20.20;1.00
43862;DHT22;29510;52.140;5.034;2023-07-20T10:27:06;20.40;1.00
43862;DHT22;29510;52.140;5.034;2023-07-20T10:37:07;20.70;1.00
43862;DHT22;29510;52.140;5.034;2023-07-20T10:47:10;21.20;1.00
43862;DHT22;29510;52.140;5.034;2023-07-20T10:57:29;21.20;1.00
43862;DHT22;29510;52.140;5.034;2023-07-20T11:07:38;21.10;1.00
43862;DHT22;29510;52.140;5.034;2023-07-20T11:17:39;20.90;1.00
43862;DHT22;29510;52.140;5.034;2023-07-20T11:27:46;21.00;1.00
43862;DHT22;29510;52.140;5.034;2023-07-20T11:37:48;21.50;1.00
43862;DHT22;29510;52.140;5.034;2023-07-20T11:47:49;22.10;1.00
43862;DHT22;29510;52.140;5.034;2023-07-20T12:08:04;22.10;1.00
43862;DHT22;29510;52.140;5.034;2023-07-20T12:18:05;21.90;1.00
43862;DHT22;29510;52.140;5.034;2023-07-20T12:28:11;22.70;1.00
43862;DHT22;29510;52.140;5.034;2023-07-20T12:38:12;22.70;1.00
43862;DHT22;29510;52.140;5.034;2023-07-20T12:48:14;22.70;1.00
43862;DHT22;29510;52.140;5.034;2023-07-20T12:58:15;22.30;1.00
43862;DHT22;29510;52.140;5.034;2023-07-20T13:08:16;22.10;1.00
43862;DHT22;29510;52.140;5.034;2023-07-20T13:18:17;22.10;1.00
43862;DHT22;29510;52.140;5.034;2023-07-20T13:28:19;21.90;1.00
43862;DHT22;29510;52.140;5.034;2023-07-20T13:38:20;21.60;1.00
43862;DHT22;29510;52.140;5.034;2023-07-20T13:48:21;22.00;1.00
43862;DHT22;29510;52.140;5.034;2023-07-20T13:58:25;22.60;1.00
43862;DHT22;29510;52.140;5.034;2023-07-20T14:08:26;21.90;1.00
43862;DHT22;29510;52.140;5.034;2023-07-20T14:18:27;21.80;1.00
43862;DHT22;29510;52.140;5.034;2023-07-20T14:28:28;22.20;1.00
43862;DHT22;29510;52.140;5.034;2023-07-20T14:38:30;22.40;1.00
43862;DHT22;29510;52.140;5.034;2023-07-20T14:48:32;22.50;1.00
43862;DHT22;29510;52.140;5.034;2023-07-20T14:58:33;22.40;1.00
43862;DHT22;29510;52.140;5.034;2023-07-20T15:08:34;23.00;1.00
43862;DHT22;29510;52.140;5.034;2023-07-20T15:18:35;23.20;1.00
43862;DHT22;29510;52.140;5.034;2023-07-20T15:28:36;22.70;1.00
43862;DHT22;29510;52.140;5.034;2023-07-20T15:38:37;22.30;1.00
43862;DHT22;29510;52.140;5.034;2023-07-20T15:48:38;21.80;1.00
43862;DHT22;29510;52.140;5.034;2023-07-20T15:58:39;21.70;1.00
43862;DHT22;29510;52.140;5.034;2023-07-20T16:08:40;21.70;1.00
43862;DHT22;29510;52.140;5.034;2023-07-20T16:18:41;21.90;1.00
43862;DHT22;29510;52.140;5.034;2023-07-20T16:28:42;21.80;1.00
43862;DHT22;29510;52.140;5.034;2023-07-20T16:38:45;22.00;1.00
43862;DHT22;29510;52.140;5.034;2023-07-20T16:48:46;22.10;1.00
43862;DHT22;29510;52.140;5.034;2023-07-20T16:58:47;22.00;1.00
43862;DHT22;29510;52.140;5.034;2023-07-20T17:08:48;21.50;1.00
43862;DHT22;29510;52.140;5.034;2023-07-20T17:18:49;21.40;1.00
43862;DHT22;29510;52.140;5.034;2023-07-20T17:28:50;21.40;1.00
43862;DHT22;29510;52.140;5.034;2023-07-20T17:38:51;21.20;1.00
43862;DHT22;29510;52.140;5.034;2023-07-20T17:48:52;20.90;1.00
43862;DHT22;29510;52.140;5.034;2023-07-20T17:58:53;20.80;1.00
43862;DHT22;29510;52.140;5.034;2023-07-20T18:08:54;20.90;1.00
43862;DHT22;29510;52.140;5.034;2023-07-20T18:18:55;20.70;1.00
43862;DHT22;29510;52.140;5.034;2023-07-20T18:28:56;20.50;1.00
43862;DHT22;29510;52.140;5.034;2023-07-20T18:38:58;20.40;1.00
43862;DHT22;29510;52.140;5.034;2023-07-20T18:48:59;20.20;1.00
43862;DHT22;29510;52.140;5.034;2023-07-20T18:59:00;20.00;1.00
43862;DHT22;29510;52.140;5.034;2023-07-20T19:09:01;19.80;1.00
43862;DHT22;29510;52.140;5.034;2023-07-20T19:19:02;19.50;1.00
43862;DHT22;29510;52.140;5.034;2023-07-20T19:29:03;19.40;1.00
43862;DHT22;29510;52.140;5.034;2023-07-20T19:39:05;19.20;1.00
43862;DHT22;29510;52.140;5.034;2023-07-20T19:49:06;19.00;1.00
43862;DHT22;29510;52.140;5.034;2023-07-20T19:59:07;18.80;1.00
43862;DHT22;29510;52.140;5.034;2023-07-20T20:09:10;18.70;1.00
43862;DHT22;29510;52.140;5.034;2023-07-20T20:19:11;18.40;1.00
43862;DHT22;29510;52.140;5.034;2023-07-20T20:29:12;18.20;1.00
43862;DHT22;29510;52.140;5.034;2023-07-20T20:39:13;18.10;1.00
43862;DHT22;29510;52.140;5.034;2023-07-20T20:49:14;17.90;1.00
43862;DHT22;29510;52.140;5.034;2023-07-20T20:59:16;17.70;1.00
43862;DHT22;29510;52.140;5.034;2023-07-20T21:09:20;17.80;1.00
43862;DHT22;29510;52.140;5.034;2023-07-20T21:19:22;17.70;1.00
43862;DHT22;29510;52.140;5.034;2023-07-20T21:29:23;17.50;1.00
43862;DHT22;29510;52.140;5.034;2023-07-20T21:39:24;17.40;1.00
43862;DHT22;29510;52.140;5.034;2023-07-20T21:49:25;17.40;1.00
43862;DHT22;29510;52.140;5.034;2023-07-20T21:59:26;17.30;1.00
43862;DHT22;29510;52.140;5.034;2023-07-20T22:09:27;17.30;1.00
43862;DHT22;29510;52.140;5.034;2023-07-20T22:19:29;17.30;1.00
43862;DHT22;29510;52.140;5.034;2023-07-20T22:29:30;17.20;1.00
43862;DHT22;29510;52.140;5.034;2023-07-20T22:39:34;17.10;1.00
43862;DHT22;29510;52.140;5.034;2023-07-20T22:49:35;17.10;1.00
43862;DHT22;29510;52.140;5.034;2023-07-20T22:59:36;17.00;1.00
43862;DHT22;29510;52.140;5.034;2023-07-20T23:09:37;17.00;1.00
43862;DHT22;29510;52.140;5.034;2023-07-20T23:19:39;17.00;1.00
43862;DHT22;29510;52.140;5.034;2023-07-20T23:29:41;16.90;1.00
43862;DHT22;29510;52.140;5.034;2023-07-20T23:39:44;16.80;1.00
43862;DHT22;29510;52.140;5.034;2023-07-20T23:49:45;16.80;1.00
43862;DHT22;29510;52.140;5.034;2023-07-20T23:59:46;16.70;1.00
